createdAt,value
2018-05-29T00:00:28.854Z,17.50
2018-05-29T00:02:57.007Z,17.40
2018-05-29T00:05:25.189Z,17.40
2018-05-29T00:07:53.350Z,17.40
2018-05-29T00:10:21.531Z,17.30
2018-05-29T00:12:49.689Z,17.30
2018-05-29T00:15:17.875Z,17.20
2018-05-29T00:17:46.025Z,17.20
2018-05-29T00:20:14.199Z,17.20
2018-05-29T00:22:42.364Z,17.10
2018-05-29T00:25:10.548Z,17.20
2018-05-29T00:27:38.699Z,17.20
2018-05-29T00:30:06.880Z,17.20
2018-05-29T00:32:35.041Z,17.20
2018-05-29T00:35:03.988Z,17.20
2018-05-29T00:37:32.141Z,17.10
2018-05-29T00:40:00.328Z,17.10
2018-05-29T00:42:28.483Z,17.10
2018-05-29T00:44:56.680Z,17.10
2018-05-29T00:47:24.836Z,17.10
2018-05-29T00:49:53.021Z,17.00
2018-05-29T00:52:21.176Z,17.00
2018-05-29T00:55:01.148Z,17.00
2018-05-29T00:57:29.304Z,16.90
2018-05-29T00:59:57.497Z,17.00
2018-05-29T01:02:25.656Z,16.90
2018-05-29T01:04:53.808Z,16.80
2018-05-29T01:07:22.753Z,16.80
2018-05-29T01:09:50.908Z,16.70
2018-05-29T01:12:19.088Z,16.70
2018-05-29T01:14:47.244Z,16.80
2018-05-29T01:17:15.424Z,16.80
2018-05-29T01:19:43.589Z,16.90
2018-05-29T01:22:11.770Z,16.90
2018-05-29T01:24:39.931Z,16.80
2018-05-29T01:27:08.107Z,16.80
2018-05-29T01:29:36.258Z,16.80
2018-05-29T01:32:04.437Z,16.80
2018-05-29T01:34:33.364Z,16.70
2018-05-29T01:37:01.548Z,16.70
2018-05-29T01:39:29.699Z,16.80
2018-05-29T01:41:57.882Z,16.90
2018-05-29T01:44:26.040Z,17.10
2018-05-29T01:46:54.211Z,17.20
2018-05-29T01:49:22.369Z,17.30
2018-05-29T01:51:50.555Z,17.40
2018-05-29T01:54:18.712Z,17.40
2018-05-29T01:56:46.901Z,17.50
2018-05-29T01:59:15.823Z,17.40
2018-05-29T02:01:44.003Z,17.40
2018-05-29T02:04:12.160Z,17.40
2018-05-29T02:06:40.348Z,17.50
2018-05-29T02:09:08.512Z,17.50
2018-05-29T02:11:36.695Z,17.50
2018-05-29T02:14:04.856Z,17.50
2018-05-29T02:16:33.039Z,17.50
2018-05-29T02:19:01.197Z,17.50
2018-05-29T02:21:29.381Z,17.60
2018-05-29T02:23:57.539Z,17.60
2018-05-29T02:26:25.732Z,17.60
2018-05-29T02:28:53.888Z,17.60
2018-05-29T02:31:22.074Z,17.60
2018-05-29T02:33:50.232Z,17.70
2018-05-29T02:36:18.418Z,17.70
2018-05-29T02:38:46.579Z,17.70
2018-05-29T02:41:14.759Z,17.70
2018-05-29T02:43:42.915Z,17.70
2018-05-29T02:46:11.098Z,17.70
2018-05-29T02:48:39.257Z,17.70
2018-05-29T02:51:08.210Z,17.60
2018-05-29T02:53:36.368Z,17.60
2018-05-29T02:56:04.548Z,17.60
2018-05-29T02:58:32.704Z,17.50
2018-05-29T03:01:00.867Z,17.40
2018-05-29T03:03:29.048Z,17.30
2018-05-29T03:05:57.207Z,17.30
2018-05-29T03:08:25.389Z,17.30
2018-05-29T03:10:53.544Z,17.30
2018-05-29T03:13:21.729Z,17.40
2018-05-29T03:15:49.881Z,17.40
2018-05-29T03:18:18.832Z,17.40
2018-05-29T03:20:46.984Z,17.40
2018-05-29T03:23:15.173Z,17.50
2018-05-29T03:25:43.332Z,17.50
2018-05-29T03:28:11.507Z,17.50
2018-05-29T03:30:39.674Z,17.60
2018-05-29T03:33:07.859Z,17.60
2018-05-29T03:35:36.025Z,17.70
2018-05-29T03:38:04.207Z,17.70
2018-05-29T03:40:32.366Z,17.70
2018-05-29T03:43:00.550Z,17.70
2018-05-29T03:45:28.713Z,17.80
2018-05-29T03:47:56.899Z,17.80
2018-05-29T03:50:25.057Z,17.80
2018-05-29T03:52:53.240Z,17.80
2018-05-29T03:55:21.401Z,17.80
2018-05-29T03:57:49.591Z,17.70
2018-05-29T04:00:17.763Z,17.70
2018-05-29T04:02:45.947Z,17.80
2018-05-29T04:05:14.110Z,17.80
2018-05-29T04:07:43.149Z,17.80
2018-05-29T04:10:11.304Z,17.90
2018-05-29T04:12:39.481Z,17.90
2018-05-29T04:15:07.636Z,17.90
2018-05-29T04:17:35.844Z,18.00
2018-05-29T04:20:04.012Z,18.10
2018-05-29T04:22:32.205Z,18.20
2018-05-29T04:25:00.368Z,18.20
2018-05-29T04:27:28.552Z,18.30
2018-05-29T04:29:56.712Z,18.40
2018-05-29T04:32:24.901Z,18.40
2018-05-29T04:34:53.060Z,18.40
2018-05-29T04:37:21.239Z,18.50
2018-05-29T04:39:49.401Z,18.50
2018-05-29T04:42:17.585Z,18.60
2018-05-29T04:44:45.748Z,18.60
2018-05-29T04:47:13.935Z,18.70
2018-05-29T04:49:42.140Z,18.80
2018-05-29T04:52:10.316Z,18.90
2018-05-29T04:54:38.472Z,18.90
2018-05-29T04:57:06.658Z,19.00
2018-05-29T04:59:35.588Z,19.20
2018-05-29T05:02:03.742Z,19.20
2018-05-29T05:04:31.924Z,19.30
2018-05-29T05:07:00.072Z,19.30
2018-05-29T05:09:28.252Z,19.40
2018-05-29T05:11:57.176Z,19.60
2018-05-29T05:14:25.356Z,19.60
2018-05-29T05:16:53.508Z,19.70
2018-05-29T05:19:21.707Z,19.70
2018-05-29T05:21:49.863Z,19.80
2018-05-29T05:24:18.048Z,19.90
2018-05-29T05:26:46.202Z,20.00
2018-05-29T05:29:14.381Z,20.10
2018-05-29T05:31:42.536Z,20.20
2018-05-29T05:34:10.713Z,20.20
2018-05-29T05:36:39.633Z,20.40
2018-05-29T05:39:07.813Z,20.40
2018-05-29T05:41:35.964Z,20.40
2018-05-29T05:44:04.145Z,20.50
2018-05-29T05:46:32.297Z,20.60
2018-05-29T05:49:01.237Z,20.70
2018-05-29T05:51:29.393Z,20.70
2018-05-29T05:53:57.592Z,20.80
2018-05-29T05:56:25.753Z,20.90
2018-05-29T05:58:53.924Z,20.90
2018-05-29T06:01:22.084Z,21.00
2018-05-29T06:03:50.278Z,21.10
2018-05-29T06:06:18.428Z,21.20
2018-05-29T06:08:46.604Z,21.30
2018-05-29T06:11:14.766Z,21.30
2018-05-29T06:13:42.949Z,21.40
2018-05-29T06:16:11.156Z,21.50
2018-05-29T06:18:39.335Z,21.50
2018-05-29T06:21:07.497Z,21.70
2018-05-29T06:23:35.672Z,21.70
2018-05-29T06:26:03.823Z,21.80
2018-05-29T06:28:32.010Z,21.90
2018-05-29T06:31:00.174Z,22.00
2018-05-29T06:33:28.352Z,22.00
2018-05-29T06:35:56.505Z,22.10
2018-05-29T06:38:24.724Z,22.20
2018-05-29T06:40:52.880Z,22.30
2018-05-29T06:43:21.120Z,22.40
2018-05-29T06:45:50.080Z,22.60
2018-05-29T06:48:18.264Z,22.70
2018-05-29T06:50:46.413Z,22.70
2018-05-29T06:53:14.596Z,22.80
2018-05-29T06:55:42.756Z,22.90
2018-05-29T06:58:11.415Z,23.00
2018-05-29T07:00:39.588Z,23.10
2018-05-29T07:03:07.761Z,23.20
2018-05-29T07:05:36.068Z,23.20
2018-05-29T07:08:04.272Z,23.30
2018-05-29T07:10:32.477Z,23.50
2018-05-29T07:13:00.685Z,23.60
2018-05-29T07:15:29.222Z,23.80
2018-05-29T07:17:57.442Z,24.00
2018-05-29T07:20:25.682Z,24.30
2018-05-29T07:22:54.640Z,24.50
2018-05-29T07:25:22.887Z,24.50
2018-05-29T07:27:51.062Z,24.70
2018-05-29T07:30:19.395Z,24.90
2018-05-29T07:32:48.367Z,25.10
2018-05-29T07:35:16.946Z,25.10
2018-05-29T07:37:45.154Z,25.30
2018-05-29T07:40:13.337Z,25.40
2018-05-29T07:42:41.540Z,25.60
2018-05-29T07:45:09.750Z,25.70
2018-05-29T07:47:37.942Z,25.80
2018-05-29T07:50:06.169Z,25.80
2018-05-29T07:52:34.378Z,25.90
2018-05-29T07:55:02.586Z,25.90
2018-05-29T07:57:30.740Z,25.90
2018-05-29T07:59:58.909Z,25.90
2018-05-29T08:02:27.074Z,25.90
2018-05-29T08:04:55.256Z,25.90
2018-05-29T08:07:23.409Z,25.90
2018-05-29T08:09:51.998Z,25.90
2018-05-29T08:12:20.552Z,26.00
2018-05-29T08:14:48.825Z,26.00
2018-05-29T08:17:16.985Z,26.10
2018-05-29T08:19:45.159Z,26.30
2018-05-29T08:22:13.309Z,26.40
2018-05-29T08:24:41.671Z,26.50
2018-05-29T08:27:10.607Z,26.60
2018-05-29T08:29:38.804Z,26.50
2018-05-29T08:32:06.953Z,26.60
2018-05-29T08:34:35.128Z,26.80
2018-05-29T08:37:03.282Z,26.90
2018-05-29T08:39:31.510Z,27.00
2018-05-29T08:41:59.641Z,27.10
2018-05-29T08:44:27.831Z,27.10
2018-05-29T08:46:55.984Z,27.20
2018-05-29T08:49:24.173Z,27.20
2018-05-29T08:51:52.348Z,27.40
2018-05-29T08:54:20.523Z,27.40
2018-05-29T08:56:48.719Z,27.50
2018-05-29T08:59:16.875Z,27.50
2018-05-29T09:01:45.024Z,27.60
2018-05-29T09:04:13.499Z,27.50
2018-05-29T09:06:41.678Z,27.40
2018-05-29T09:09:10.245Z,27.40
2018-05-29T09:11:39.607Z,27.40
2018-05-29T09:14:08.091Z,27.50
2018-05-29T09:16:36.629Z,27.60
2018-05-29T09:19:05.216Z,27.60
2018-05-29T09:21:33.444Z,27.70
2018-05-29T09:24:01.699Z,27.80
2018-05-29T09:26:29.883Z,27.80
2018-05-29T09:28:58.060Z,27.80
2018-05-29T09:31:26.288Z,27.80
2018-05-29T09:33:54.478Z,27.80
2018-05-29T09:36:22.652Z,27.80
2018-05-29T09:38:50.803Z,27.90
2018-05-29T09:41:18.981Z,27.90
2018-05-29T09:43:47.191Z,27.90
2018-05-29T09:46:15.382Z,28.00
2018-05-29T09:48:43.532Z,28.00
2018-05-29T09:51:11.714Z,28.10
2018-05-29T09:53:39.932Z,28.20
2018-05-29T09:56:08.227Z,28.20
2018-05-29T09:58:36.400Z,28.20
2018-05-29T10:01:04.591Z,28.10
2018-05-29T10:03:32.751Z,28.00
2018-05-29T10:06:00.934Z,28.10
2018-05-29T10:08:29.090Z,28.10
2018-05-29T10:10:57.272Z,28.00
2018-05-29T10:13:25.443Z,28.10
2018-05-29T10:15:53.617Z,28.10
2018-05-29T10:18:21.789Z,28.20
2018-05-29T10:20:50.723Z,28.20
2018-05-29T10:23:18.918Z,28.20
2018-05-29T10:25:47.069Z,28.30
2018-05-29T10:28:15.229Z,28.20
2018-05-29T10:30:43.417Z,28.20
2018-05-29T10:33:11.574Z,28.20
2018-05-29T10:35:39.747Z,28.20
2018-05-29T10:38:07.916Z,28.20
2018-05-29T10:40:36.091Z,28.40
2018-05-29T10:43:04.251Z,28.40
2018-05-29T10:45:32.425Z,28.50
2018-05-29T10:48:00.571Z,28.50
2018-05-29T10:50:28.749Z,28.40
2018-05-29T10:53:01.471Z,28.40
2018-05-29T10:55:29.651Z,28.30
2018-05-29T10:57:57.800Z,28.30
2018-05-29T11:00:25.972Z,28.30
2018-05-29T11:02:54.126Z,28.40
2018-05-29T11:05:23.063Z,28.40
2018-05-29T11:07:51.211Z,28.40
2018-05-29T11:10:20.159Z,28.40
2018-05-29T11:12:48.313Z,28.40
2018-05-29T11:15:16.460Z,28.40
2018-05-29T11:17:44.636Z,28.40
2018-05-29T11:20:12.796Z,28.40
2018-05-29T11:22:40.972Z,28.40
2018-05-29T11:25:09.120Z,28.40
2018-05-29T11:27:37.312Z,28.50
2018-05-29T11:30:06.229Z,28.50
2018-05-29T11:32:34.404Z,28.50
2018-05-29T11:35:02.560Z,28.50
2018-05-29T11:37:30.729Z,28.50
2018-05-29T11:39:58.881Z,28.50
2018-05-29T11:42:27.110Z,28.50
2018-05-29T11:44:55.221Z,28.40
2018-05-29T11:47:23.406Z,28.50
2018-05-29T11:49:52.319Z,28.40
2018-05-29T11:52:20.500Z,28.40
2018-05-29T11:54:48.653Z,28.50
2018-05-29T11:57:16.833Z,28.40
2018-05-29T11:59:44.980Z,28.30
2018-05-29T12:02:13.168Z,28.30
2018-05-29T12:04:41.338Z,28.30
2018-05-29T12:07:09.548Z,28.20
2018-05-29T12:09:37.714Z,28.20
2018-05-29T12:12:17.602Z,28.30
2018-05-29T12:14:45.751Z,28.20
2018-05-29T12:17:13.927Z,28.20
2018-05-29T12:19:42.094Z,28.20
2018-05-29T12:22:10.268Z,28.20
2018-05-29T12:24:38.436Z,28.30
2018-05-29T12:27:06.644Z,28.30
2018-05-29T12:29:34.795Z,28.30
2018-05-29T12:32:02.985Z,28.30
2018-05-29T12:34:31.132Z,28.30
2018-05-29T12:36:59.320Z,28.30
2018-05-29T12:39:27.471Z,28.30
2018-05-29T12:41:55.642Z,28.30
2018-05-29T12:44:23.814Z,28.30
2018-05-29T12:46:52.752Z,28.30
2018-05-29T12:49:20.935Z,28.30
2018-05-29T12:51:49.140Z,28.20
2018-05-29T12:54:17.296Z,28.20
2018-05-29T12:56:45.480Z,28.20
2018-05-29T12:59:13.684Z,28.20
2018-05-29T13:01:41.842Z,28.30
2018-05-29T13:04:10.756Z,28.40
2018-05-29T13:06:38.945Z,28.40
2018-05-29T13:09:07.100Z,28.30
2018-05-29T13:11:35.290Z,28.20
2018-05-29T13:14:03.448Z,28.30
2018-05-29T13:16:31.627Z,28.30
2018-05-29T13:18:59.780Z,28.30
2018-05-29T13:21:27.982Z,28.20
2018-05-29T13:23:56.144Z,28.20
2018-05-29T13:26:24.311Z,28.20
2018-05-29T13:28:52.496Z,28.30
2018-05-29T13:31:20.647Z,28.30
2018-05-29T13:33:48.839Z,28.30
2018-05-29T13:36:17.013Z,28.40
2018-05-29T13:38:45.196Z,28.40
2018-05-29T13:41:13.357Z,28.40
2018-05-29T13:43:41.532Z,28.30
2018-05-29T13:46:09.704Z,28.30
2018-05-29T13:48:37.917Z,28.20
2018-05-29T13:51:06.172Z,28.20
2018-05-29T13:53:34.353Z,28.20
2018-05-29T13:56:02.515Z,28.20
2018-05-29T13:58:30.711Z,28.20
2018-05-29T14:00:58.884Z,28.20
2018-05-29T14:03:27.115Z,28.20
2018-05-29T14:05:55.243Z,28.20
2018-05-29T14:08:23.429Z,28.20
2018-05-29T14:10:51.584Z,28.20
2018-05-29T14:13:19.799Z,28.20
2018-05-29T14:15:47.985Z,28.20
2018-05-29T14:18:16.923Z,28.30
2018-05-29T14:20:45.084Z,28.30
2018-05-29T14:23:13.263Z,28.40
2018-05-29T14:25:41.417Z,28.40
2018-05-29T14:28:09.620Z,28.40
2018-05-29T14:30:37.838Z,28.30
2018-05-29T14:33:06.011Z,28.30
2018-05-29T14:35:34.938Z,28.30
2018-05-29T14:38:03.161Z,28.30
2018-05-29T14:40:31.331Z,28.30
2018-05-29T14:42:59.520Z,28.30
2018-05-29T14:45:27.680Z,28.30
2018-05-29T14:47:55.872Z,28.30
2018-05-29T14:50:24.024Z,28.30
2018-05-29T14:52:52.222Z,28.30
2018-05-29T14:55:20.377Z,28.30
2018-05-29T14:57:48.560Z,28.30
2018-05-29T15:00:16.709Z,28.20
2018-05-29T15:02:44.910Z,28.20
2018-05-29T15:05:13.080Z,28.20
2018-05-29T15:07:41.260Z,28.20
2018-05-29T15:10:09.411Z,28.20
2018-05-29T15:12:37.588Z,28.30
2018-05-29T15:15:05.737Z,28.20
2018-05-29T15:17:33.907Z,28.30
2018-05-29T15:20:02.056Z,28.30
2018-05-29T15:22:30.235Z,28.30
2018-05-29T15:24:58.418Z,28.30
2018-05-29T15:27:26.589Z,28.30
2018-05-29T15:29:54.809Z,28.30
2018-05-29T15:32:22.964Z,28.20
2018-05-29T15:34:51.135Z,28.20
2018-05-29T15:37:19.314Z,28.30
2018-05-29T15:39:47.492Z,28.20
2018-05-29T15:42:15.676Z,28.30
2018-05-29T15:44:43.879Z,28.30
2018-05-29T15:47:12.048Z,28.20
2018-05-29T15:49:40.269Z,28.20
2018-05-29T15:52:08.447Z,28.30
2018-05-29T15:54:36.628Z,28.30
2018-05-29T15:57:04.799Z,28.30
2018-05-29T15:59:32.983Z,28.30
2018-05-29T16:02:01.150Z,28.30
2018-05-29T16:04:29.335Z,28.30
2018-05-29T16:06:57.488Z,28.20
2018-05-29T16:09:25.659Z,28.30
2018-05-29T16:11:53.812Z,28.30
2018-05-29T16:14:22.028Z,28.20
2018-05-29T16:16:50.172Z,28.20
2018-05-29T16:19:18.370Z,28.20
2018-05-29T16:21:46.512Z,28.20
2018-05-29T16:24:14.692Z,28.10
2018-05-29T16:26:42.919Z,28.20
2018-05-29T16:29:11.089Z,28.10
2018-05-29T16:31:39.268Z,28.10
2018-05-29T16:34:07.447Z,28.10
2018-05-29T16:36:35.629Z,28.10
2018-05-29T16:39:03.785Z,28.10
2018-05-29T16:41:31.968Z,28.10
2018-05-29T16:44:00.122Z,28.10
2018-05-29T16:46:28.304Z,28.00
2018-05-29T16:48:56.453Z,27.90
2018-05-29T16:51:24.632Z,27.70
2018-05-29T16:53:52.786Z,27.50
2018-05-29T16:56:20.957Z,27.30
2018-05-29T16:58:49.109Z,27.20
2018-05-29T17:01:17.295Z,27.00
2018-05-29T17:03:45.445Z,27.00
2018-05-29T17:06:14.391Z,26.70
2018-05-29T17:08:42.535Z,26.70
2018-05-29T17:11:10.712Z,26.60
2018-05-29T17:13:38.861Z,26.60
2018-05-29T17:16:07.045Z,26.50
2018-05-29T17:18:35.960Z,26.40
2018-05-29T17:21:04.153Z,26.30
2018-05-29T17:23:32.308Z,26.30
2018-05-29T17:26:00.482Z,26.20
2018-05-29T17:28:28.660Z,26.10
2018-05-29T17:30:56.816Z,26.00
2018-05-29T17:33:25.009Z,25.90
2018-05-29T17:35:53.163Z,25.80
2018-05-29T17:38:21.356Z,25.70
2018-05-29T17:40:49.524Z,25.60
2018-05-29T17:43:17.699Z,25.60
2018-05-29T17:45:45.877Z,25.50
2018-05-29T17:48:14.067Z,25.40
2018-05-29T17:50:42.227Z,25.30
2018-05-29T17:53:10.403Z,25.30
2018-05-29T17:55:38.561Z,25.20
2018-05-29T17:58:06.751Z,25.10
2018-05-29T18:00:34.909Z,25.00
2018-05-29T18:03:03.132Z,24.90
2018-05-29T18:05:31.380Z,24.80
2018-05-29T18:07:59.766Z,24.70
2018-05-29T18:10:28.029Z,24.60
2018-05-29T18:12:56.345Z,24.50
2018-05-29T18:15:25.633Z,24.50
2018-05-29T18:17:53.940Z,24.40
2018-05-29T18:20:22.255Z,24.30
2018-05-29T18:22:50.627Z,24.20
2018-05-29T18:25:18.845Z,24.10
2018-05-29T18:27:47.042Z,24.10
2018-05-29T18:30:15.247Z,24.00
2018-05-29T18:32:43.435Z,23.90
2018-05-29T18:35:11.592Z,23.80
2018-05-29T18:37:39.813Z,23.80
2018-05-29T18:40:07.980Z,23.60
2018-05-29T18:42:36.166Z,23.60
2018-05-29T18:45:04.326Z,23.50
2018-05-29T18:47:32.616Z,23.50
2018-05-29T18:50:01.580Z,23.30
2018-05-29T18:52:29.757Z,23.30
2018-05-29T18:54:57.918Z,23.20
2018-05-29T18:57:26.133Z,23.10
2018-05-29T18:59:54.311Z,23.00
2018-05-29T19:02:22.550Z,23.00
2018-05-29T19:04:50.799Z,22.80
2018-05-29T19:07:19.021Z,22.80
2018-05-29T19:09:47.316Z,22.70
2018-05-29T19:12:15.533Z,22.60
2018-05-29T19:14:43.844Z,22.50
2018-05-29T19:17:12.074Z,22.50
2018-05-29T19:19:40.222Z,22.40
2018-05-29T19:22:08.386Z,22.30
2018-05-29T19:24:36.557Z,22.20
2018-05-29T19:27:04.760Z,22.10
2018-05-29T19:29:32.920Z,22.00
2018-05-29T19:32:01.863Z,21.80
2018-05-29T19:34:30.051Z,21.90
2018-05-29T19:36:58.225Z,21.70
2018-05-29T19:39:26.422Z,21.70
2018-05-29T19:41:54.604Z,21.60
2018-05-29T19:44:23.595Z,21.40
2018-05-29T19:46:52.543Z,21.40
2018-05-29T19:49:20.701Z,21.40
2018-05-29T19:51:48.876Z,21.30
2018-05-29T19:54:17.040Z,21.20
2018-05-29T19:56:45.215Z,21.10
2018-05-29T19:59:13.376Z,21.00
2018-05-29T20:01:41.557Z,21.00
2018-05-29T20:04:09.699Z,20.90
2018-05-29T20:06:38.669Z,20.70
2018-05-29T20:09:06.853Z,20.70
2018-05-29T20:11:35.045Z,20.60
2018-05-29T20:14:03.976Z,20.40
2018-05-29T20:16:32.152Z,20.40
2018-05-29T20:19:00.308Z,20.30
2018-05-29T20:21:28.492Z,20.20
2018-05-29T20:23:56.656Z,20.10
2018-05-29T20:26:24.838Z,20.10
2018-05-29T20:28:53.080Z,20.00
2018-05-29T20:31:21.288Z,19.90
2018-05-29T20:33:49.459Z,19.80
2018-05-29T20:36:17.724Z,19.70
2018-05-29T20:38:45.962Z,19.60
2018-05-29T20:41:14.273Z,19.50
2018-05-29T20:43:42.430Z,19.40
2018-05-29T20:46:10.618Z,19.30
2018-05-29T20:48:38.800Z,19.20
2018-05-29T20:51:06.984Z,19.10
2018-05-29T20:53:35.148Z,19.10
2018-05-29T20:56:03.381Z,19.00
2018-05-29T20:58:31.541Z,19.00
2018-05-29T21:00:59.747Z,18.90
2018-05-29T21:03:28.692Z,18.70
2018-05-29T21:05:56.878Z,18.70
2018-05-29T21:08:25.036Z,18.70
2018-05-29T21:10:53.263Z,18.70
2018-05-29T21:13:21.430Z,18.70
2018-05-29T21:15:49.612Z,18.70
2018-05-29T21:18:18.537Z,18.80
2018-05-29T21:20:46.719Z,18.80
2018-05-29T21:23:14.884Z,18.80
2018-05-29T21:25:43.093Z,18.80
2018-05-29T21:28:11.256Z,18.80
2018-05-29T21:30:39.411Z,18.70
2018-05-29T21:33:07.596Z,18.70
2018-05-29T21:35:35.759Z,18.70
2018-05-29T21:38:03.944Z,18.70
2018-05-29T21:40:32.109Z,18.60
2018-05-29T21:43:00.296Z,18.60
2018-05-29T21:45:28.463Z,18.50
2018-05-29T21:47:56.673Z,18.50
2018-05-29T21:50:24.841Z,18.50
2018-05-29T21:52:53.024Z,18.40
2018-05-29T21:55:21.175Z,18.30
2018-05-29T21:57:49.361Z,18.30
2018-05-29T22:00:17.524Z,18.20
2018-05-29T22:02:45.707Z,18.10
2018-05-29T22:05:13.864Z,18.00
2018-05-29T22:07:42.045Z,17.90
2018-05-29T22:10:10.199Z,17.90
2018-05-29T22:12:38.384Z,17.80
2018-05-29T22:15:06.544Z,17.80
2018-05-29T22:17:34.729Z,17.80
2018-05-29T22:20:02.894Z,17.70
2018-05-29T22:22:31.077Z,17.70
2018-05-29T22:24:59.232Z,17.70
2018-05-29T22:27:27.415Z,17.70
2018-05-29T22:29:55.597Z,17.70
2018-05-29T22:32:23.775Z,17.70
2018-05-29T22:34:51.936Z,17.60
2018-05-29T22:37:20.111Z,17.60
2018-05-29T22:39:48.283Z,17.50
2018-05-29T22:42:16.465Z,17.40
2018-05-29T22:44:44.625Z,17.20
2018-05-29T22:47:12.800Z,17.20
2018-05-29T22:49:40.959Z,17.10
2018-05-29T22:52:09.136Z,17.00
2018-05-29T22:54:37.293Z,17.00
2018-05-29T22:57:05.480Z,16.90
2018-05-29T22:59:33.635Z,16.80
2018-05-29T23:02:01.828Z,16.80
2018-05-29T23:04:29.990Z,16.80
2018-05-29T23:06:58.940Z,16.70
2018-05-29T23:09:27.091Z,16.60
2018-05-29T23:11:55.444Z,16.70
2018-05-29T23:14:23.591Z,16.60
2018-05-29T23:16:51.773Z,16.50
2018-05-29T23:19:19.929Z,16.50
2018-05-29T23:21:48.104Z,16.40
2018-05-29T23:24:16.263Z,16.40
2018-05-29T23:26:44.415Z,16.40
2018-05-29T23:29:12.595Z,16.40
2018-05-29T23:31:40.751Z,16.30
2018-05-29T23:34:08.927Z,16.30
2018-05-29T23:36:37.085Z,16.30
2018-05-29T23:39:06.084Z,16.30
2018-05-29T23:41:34.239Z,16.20
2018-05-29T23:44:02.416Z,16.20
2018-05-29T23:46:30.576Z,16.10
2018-05-29T23:48:58.765Z,16.10
2018-05-29T23:51:26.916Z,16.00
2018-05-29T23:53:55.092Z,16.10
2018-05-29T23:56:24.012Z,16.00
2018-05-29T23:58:52.188Z,16.00
